Date,TemperatureHighF,TemperatureAvgF,TemperatureLowF,DewpointHighF,DewpointAvgF,DewpointLowF,HumidityHigh,HumidityAvg,HumidityLow,PressureMaxIn,PressureMinIn,WindSpeedMaxMPH,WindSpeedAvgMPH,GustSpeedMaxMPH,PrecipitationSumIn
2012-12-1,42.8,35.7,29.6,33.6,29.6,25.7,95,79,59,30.00,29.87,6,1,6,0.05
2012-12-2,44.8,34.0,28.6,33.4,29.1,25.9,92,82,63,30.00,29.78,4,0,4,0.00
2012-12-3,37.8,34.7,32.4,35.4,32.9,30.6,95,93,90,29.78,29.47,4,1,4,0.13
2012-12-4,38.0,32.7,25.8,35.3,30.2,24.6,96,91,77,29.75,29.48,5,1,7,0.02
2012-12-5,39.0,32.4,22.3,28.8,25.7,19.6,91,77,62,30.00,29.75,12,2,12,0.00
2012-12-6,37.6,33.1,22.7,35.2,30.9,20.2,96,92,82,29.96,29.26,12,1,12,0.28
2012-12-7,43.5,39.0,32.0,36.3,33.0,28.8,91,79,69,30.12,29.36,14,3,16,0.10
2012-12-8,45.5,37.7,28.2,43.5,35.6,25.8,95,92,86,30.18,29.91,6,1,6,0.05
2012-12-9,46.9,42.8,39.3,41.7,35.3,31.6,90,75,64,30.19,29.86,12,5,12,0.03
2012-12-10,44.7,37.4,27.0,33.1,30.0,24.5,91,75,61,30.49,30.19,9,2,9,0.00
2012-12-11,36.3,25.7,20.9,29.1,23.1,18.9,94,90,74,30.50,30.27,2,0,2,0.00
2012-12-12,29.5,25.5,21.2,27.3,23.8,19.4,95,93,91,30.27,29.85,5,0,5,0.00
2012-12-13,34.8,31.8,26.5,32.2,28.2,21.0,94,87,62,29.85,29.50,4,1,4,0.00
2012-12-14,42.7,37.8,32.5,40.4,34.3,24.5,94,87,72,29.50,28.66,7,3,7,0.41
2012-12-15,44.5,41.7,37.1,42.7,40.1,35.8,96,94,92,29.21,28.67,8,2,8,0.13
2012-12-16,47.0,43.8,42.3,42.6,40.9,39.5,93,90,83,29.35,29.21,5,1,5,0.00
2012-12-17,43.9,42.1,39.9,40.9,39.7,38.1,94,91,87,29.73,29.33,7,1,7,0.01
2012-12-18,44.4,42.4,39.6,41.2,39.8,38.0,95,90,86,30.13,29.76,5,1,6,0.00
2012-12-19,44.0,42.1,39.7,39.3,38.2,37.3,93,86,78,30.10,29.87,6,2,6,0.26
2012-12-20,42.2,41.2,40.4,40.0,38.9,38.1,93,91,89,29.87,29.60,10,3,10,1.19
2012-12-21,41.4,40.7,40.1,39.5,38.8,38.2,93,93,92,29.88,29.66,5,2,5,0.37
2012-12-22,44.5,42.7,40.7,43.2,40.9,38.6,95,93,90,29.84,29.21,5,2,8,0.73
2012-12-23,50.1,46.3,42.9,47.4,43.3,40.1,96,89,77,29.44,28.92,20,4,20,0.36
2012-12-24,46.1,43.5,40.8,43.2,41.5,39.5,96,93,88,29.45,29.18,9,1,9,0.30
2012-12-25,48.5,41.1,37.1,43.6,38.8,35.8,96,92,80,29.32,29.13,5,1,5,0.02
2012-12-26,42.0,39.4,37.1,39.3,37.0,34.6,96,91,86,29.48,29.31,9,1,9,0.17
2012-12-27,38.4,37.1,34.8,34.8,32.5,30.0,91,83,75,29.94,29.34,10,2,10,0.01
2012-12-28,54.9,46.6,37.1,50.1,43.8,33.9,97,90,83,29.91,29.20,18,4,18,0.51
2012-12-29,53.7,45.2,37.0,50.2,40.8,34.1,91,85,77,29.23,29.16,20,4,20,0.13
2012-12-30,49.4,39.6,26.9,47.4,36.8,24.6,96,90,81,29.35,29.21,9,3,12,0.42
2012-12-31,50.4,44.5,32.8,47.5,41.0,31.3,95,88,78,29.30,28.97,14,4,18,0.30